Airfield :
LOGIN :

Register | Disclaimer

   EN    FR    IT 

 










Legend :    VFR   Marginal VFR   IFR   Intensive IFR   Very Intensive IFR
Visi :
Ceiling :
>= 8 km
>= 3000ft
5 to 8 km
1000 to 3000 ft
1500m to 5 km
500 to 1000 ft
800 to 1500m
200 to 500 ft
< 800m
< 200 ft
Symbols :   Thunderstorms  Fog  Heavy snow  Heavy precipitations  Wind > 20 kt
SIGMETs :     Misc.  Thunderstorms  Icing  Turbulence  Mountain Waves  Volcanic Ashes






- Airport Elevation : 135 ft
- IATA code : EDI


EGPH - Edinburgh

CURRENT METAR :
  • 191420Z 27005KT 220V360 9999 SCT023 18/12 Q1013

EXPIRED METARs :
  • 191350Z 26006KT 240V320 9999 SCT020 17/12 Q1013
  • 191320Z 24007KT 9999 FEW017 17/13 Q1013
  • 191250Z 24007KT 9999 FEW008 15/13 Q1013
  • 191220Z 25009KT 9999 -RA SCT011 BKN025 14/13 Q1013
  • 191150Z 26007KT 220V300 9999 SCT013 BKN048 16/13 Q1013

TAF TAF EGPH
Valid from the 19 at 12:00 until the 20 at 12:00 UTC


191100Z 1912/2012 25006KT 9999 FEW012 SCT030
PROB30
TEMPO 1912/1917 7000 SHRA BKN014
PROB30
TEMPO 2003/2009 7000
ATIS : +44 131 339 2823



MET'MAP, your aeronautical weather chart ! - Copyright ORBIFLY December 2007 - Disclaimer

ORBIFLY MET'MAP TEAM :

Programming & Development : Alexandra Zaïnal
Concept & original design : Baudouin d'Aumeries
Assistance for programming : Marc-Olivier Méhu
Technical & hardware support : Manuel Goepfert

Contact : metmap@orbifly.com




SOURCES & CREDITS :

   NOAA